Claire — PCUG — position and weather

sailwx.info

Track history (hours):
 
Tides and Currents Weather Stations Pressure Air Temp Water Temp Dewpoint Dewpoint Depression Visibility Wind Speed Wind Dir Waves Ship Positions

Claire

Last reported at 2017-Nov-19 19:54 UTC. Time now 2017-Nov-22 18:40 UTC.
Position N 52°35' W 005°50'.

Length 90 m; draft 5.8 m.

Type: Cargo ship. MMSI: 244790234.

Date/timePositionNaut miles runAvg speedWind from/ knotsBaromVisibWave heightAir tempDewpointWater temp
2017-Nov-19 19:54N 52°35' W 005°50'4 9.8
2017-Nov-19 19:30N 52°31' W 005°52'5 9.4
2017-Nov-19 19:00N 52°27' W 005°54'5 9.0
2017-Nov-19 18:31N 52°22' W 005°55'4 8.5
2017-Nov-19 18:01N 52°18' W 005°57'4 7.8
2017-Nov-19 17:30N 52°14' W 005°58'4 7.1
2017-Nov-19 17:00N 52°11' W 006°00'3 6.4
2017-Nov-19 16:30N 52°08' W 006°02'3 5.9
2017-Nov-19 16:01N 52°06' W 006°04'3 5.5
2017-Nov-19 15:30N 52°03' W 006°07'3 5.4
2017-Nov-19 15:00N 52°01' W 006°08'3 5.4
2017-Nov-19 14:30N 51°58' W 006°10'  
2017-Nov-14 19:23N 39°14' W 009°50'410.7
2017-Nov-14 19:00N 39°10' W 009°50'510.7
2017-Nov-14 18:30N 39°05' W 009°50'510.4
2017-Nov-14 18:00N 38°60' W 009°50'510.4
2017-Nov-14 17:31N 38°55' W 009°50'510.4
2017-Nov-14 17:01N 38°49' W 009°50'510.4
2017-Nov-14 16:30N 38°44' W 009°50'510.3
2017-Nov-14 16:00N 38°39' W 009°49'510.4
2017-Nov-14 15:30N 38°34' W 009°48'510.5
2017-Nov-14 14:59N 38°29' W 009°47'510.3
2017-Nov-14 14:30N 38°24' W 009°45'4310.3
2017-Nov-14 10:20N 37°42' W 009°33'3710.4
2017-Nov-14 06:49N 37°06' W 009°22'25 9.8
2017-Nov-14 04:18N 36°45' W 009°07'3010.9
2017-Nov-14 01:34N 36°36' W 008°31'111.1
2017-Nov-14 01:30N 36°36' W 008°31'1911.1
2017-Nov-13 23:49N 36°30' W 008°09'142 6.5
2017-Nov-13 02:00N 35°55' W 005°17'229 9.7
2017-Nov-12 02:21N 37°20' W 000°53'610.8
2017-Nov-12 01:49N 37°24' W 000°48'310.5
2017-Nov-12 01:30N 37°27' W 000°44'810.3
2017-Nov-12 00:46N 37°32' W 000°37'310.2
2017-Nov-12 00:30N 37°33' W 000°35'510.0
2017-Nov-12 00:00N 37°37' W 000°31'510.1
2017-Nov-11 23:30N 37°41' W 000°27'  
Track history (hours):
 
Tides and Currents Weather Stations Pressure Air Temp Water Temp Dewpoint Dewpoint Depression Visibility Wind Speed Wind Dir Waves Ship Positions

Claire

Last reported at 2017-Nov-19 19:54 UTC. Time now 2017-Nov-22 18:40 UTC.
Position N 52°35' W 005°50'.

Length 90 m; draft 5.8 m.

Type: Cargo ship. MMSI: 244790234.

Date/timePositionNaut miles runAvg speedWind from/ knotsBaromVisibWave heightAir tempDewpointWater temp
2017-Nov-19 19:54N 52°35' W 005°50'4 9.8
2017-Nov-19 19:30N 52°31' W 005°52'5 9.4
2017-Nov-19 19:00N 52°27' W 005°54'5 9.0
2017-Nov-19 18:31N 52°22' W 005°55'4 8.5
2017-Nov-19 18:01N 52°18' W 005°57'4 7.8
2017-Nov-19 17:30N 52°14' W 005°58'4 7.1
2017-Nov-19 17:00N 52°11' W 006°00'3 6.4
2017-Nov-19 16:30N 52°08' W 006°02'3 5.9
2017-Nov-19 16:01N 52°06' W 006°04'3 5.5
2017-Nov-19 15:30N 52°03' W 006°07'3 5.4
2017-Nov-19 15:00N 52°01' W 006°08'3 5.4
2017-Nov-19 14:30N 51°58' W 006°10'  
2017-Nov-14 19:23N 39°14' W 009°50'410.7
2017-Nov-14 19:00N 39°10' W 009°50'510.7
2017-Nov-14 18:30N 39°05' W 009°50'510.4
2017-Nov-14 18:00N 38°60' W 009°50'510.4
2017-Nov-14 17:31N 38°55' W 009°50'510.4
2017-Nov-14 17:01N 38°49' W 009°50'510.4
2017-Nov-14 16:30N 38°44' W 009°50'510.3
2017-Nov-14 16:00N 38°39' W 009°49'510.4
2017-Nov-14 15:30N 38°34' W 009°48'510.5
2017-Nov-14 14:59N 38°29' W 009°47'510.3
2017-Nov-14 14:30N 38°24' W 009°45'4310.3
2017-Nov-14 10:20N 37°42' W 009°33'3710.4
2017-Nov-14 06:49N 37°06' W 009°22'25 9.8
2017-Nov-14 04:18N 36°45' W 009°07'3010.9
2017-Nov-14 01:34N 36°36' W 008°31'111.1
2017-Nov-14 01:30N 36°36' W 008°31'1911.1
2017-Nov-13 23:49N 36°30' W 008°09'142 6.5
2017-Nov-13 02:00N 35°55' W 005°17'229 9.7
2017-Nov-12 02:21N 37°20' W 000°53'610.8
2017-Nov-12 01:49N 37°24' W 000°48'310.5
2017-Nov-12 01:30N 37°27' W 000°44'810.3
2017-Nov-12 00:46N 37°32' W 000°37'310.2
2017-Nov-12 00:30N 37°33' W 000°35'510.0
2017-Nov-12 00:00N 37°37' W 000°31'510.1
2017-Nov-11 23:30N 37°41' W 000°27'  

Dump ship's entire track history